Terminal Aerodrome Forecast
Issued by NWS

Home | Current Version | Previous Version | Text Only | Print | Product List | Glossary On
Versions: 1 2 3 4 5 6 7 8 9 10 11 12 13 14 15 16 17 18 19 20 21 22 23 24 25 26 27 28 29
000
FTUS42 KFFC 270520
TAFPDK
TAF
KPDK 270520Z 2706/2806 00000KT P6SM SCT100
     FM271000 00000KT P6SM SCT008 BKN015
      TEMPO 2710/2714 BKN008
     FM271500 21010KT P6SM BKN020
     FM271800 22010KT P6SM VCSH BKN045 PROB30 2722/2803 4SM -TSRA
      BKN045CB
     FM280300 17005KT P6SM VCSH BKN035=

USA.gov is the U.S. government's official web portal to all federal, state and local government web resources and services.